sensor_id;sensor_type;location;lat;lon;timestamp;P1;durP1;ratioP1;P2;durP2;ratioP2
5774;SDS011;2913;51.120;6.772;2022-11-20T00:02:12;28.98;;;12.70;;
5774;SDS011;2913;51.120;6.772;2022-11-20T00:04:38;27.40;;;13.00;;
5774;SDS011;2913;51.120;6.772;2022-11-20T00:07:04;31.20;;;13.35;;
5774;SDS011;2913;51.120;6.772;2022-11-20T00:09:29;26.45;;;12.15;;
5774;SDS011;2913;51.120;6.772;2022-11-20T00:11:58;29.52;;;12.77;;
5774;SDS011;2913;51.120;6.772;2022-11-20T00:14:23;30.80;;;13.05;;
5774;SDS011;2913;51.120;6.772;2022-11-20T00:16:51;32.83;;;13.93;;
5774;SDS011;2913;51.120;6.772;2022-11-20T00:19:19;35.50;;;14.85;;
5774;SDS011;2913;51.120;6.772;2022-11-20T00:21:47;30.20;;;13.18;;
5774;SDS011;2913;51.120;6.772;2022-11-20T00:24:16;30.52;;;13.90;;
5774;SDS011;2913;51.120;6.772;2022-11-20T00:26:44;31.08;;;12.70;;
5774;SDS011;2913;51.120;6.772;2022-11-20T00:29:09;30.77;;;13.05;;
5774;SDS011;2913;51.120;6.772;2022-11-20T00:31:36;32.25;;;14.13;;
5774;SDS011;2913;51.120;6.772;2022-11-20T00:34:01;34.42;;;13.80;;
5774;SDS011;2913;51.120;6.772;2022-11-20T00:36:27;29.05;;;13.75;;
5774;SDS011;2913;51.120;6.772;2022-11-20T00:38:59;30.58;;;12.65;;
5774;SDS011;2913;51.120;6.772;2022-11-20T00:41:27;27.73;;;12.98;;
5774;SDS011;2913;51.120;6.772;2022-11-20T00:43:56;34.55;;;13.80;;
5774;SDS011;2913;51.120;6.772;2022-11-20T00:46:25;31.05;;;12.63;;
5774;SDS011;2913;51.120;6.772;2022-11-20T00:48:52;31.38;;;14.40;;
5774;SDS011;2913;51.120;6.772;2022-11-20T00:51:18;31.52;;;13.32;;
5774;SDS011;2913;51.120;6.772;2022-11-20T00:53:46;27.70;;;12.98;;
5774;SDS011;2913;51.120;6.772;2022-11-20T00:56:14;32.42;;;12.98;;
5774;SDS011;2913;51.120;6.772;2022-11-20T00:58:46;28.10;;;11.75;;
5774;SDS011;2913;51.120;6.772;2022-11-20T01:01:14;29.65;;;13.15;;
5774;SDS011;2913;51.120;6.772;2022-11-20T01:03:48;30.85;;;13.45;;
5774;SDS011;2913;51.120;6.772;2022-11-20T01:06:16;31.45;;;13.57;;
5774;SDS011;2913;51.120;6.772;2022-11-20T01:08:43;34.83;;;13.80;;
5774;SDS011;2913;51.120;6.772;2022-11-20T01:11:14;27.73;;;13.15;;
5774;SDS011;2913;51.120;6.772;2022-11-20T01:13:41;29.98;;;13.30;;
5774;SDS011;2913;51.120;6.772;2022-11-20T01:16:09;26.77;;;11.77;;
5774;SDS011;2913;51.120;6.772;2022-11-20T01:18:37;31.85;;;13.88;;
5774;SDS011;2913;51.120;6.772;2022-11-20T01:21:05;33.60;;;14.25;;
5774;SDS011;2913;51.120;6.772;2022-11-20T01:23:36;30.30;;;13.50;;
5774;SDS011;2913;51.120;6.772;2022-11-20T01:26:10;31.83;;;13.40;;
5774;SDS011;2913;51.120;6.772;2022-11-20T01:28:39;27.85;;;13.73;;
5774;SDS011;2913;51.120;6.772;2022-11-20T01:31:16;32.55;;;13.98;;
5774;SDS011;2913;51.120;6.772;2022-11-20T01:33:46;39.95;;;14.38;;
5774;SDS011;2913;51.120;6.772;2022-11-20T01:36:16;34.75;;;13.98;;
5774;SDS011;2913;51.120;6.772;2022-11-20T01:38:43;29.08;;;13.57;;
5774;SDS011;2913;51.120;6.772;2022-11-20T01:41:09;31.33;;;13.60;;
5774;SDS011;2913;51.120;6.772;2022-11-20T01:43:57;32.55;;;14.05;;
5774;SDS011;2913;51.120;6.772;2022-11-20T01:46:23;28.05;;;12.68;;
5774;SDS011;2913;51.120;6.772;2022-11-20T01:51:30;32.40;;;13.77;;
5774;SDS011;2913;51.120;6.772;2022-11-20T01:54:00;32.17;;;12.77;;
5774;SDS011;2913;51.120;6.772;2022-11-20T01:56:33;34.13;;;13.48;;
5774;SDS011;2913;51.120;6.772;2022-11-20T01:59:04;32.58;;;13.75;;
5774;SDS011;2913;51.120;6.772;2022-11-20T02:01:35;30.80;;;13.93;;
5774;SDS011;2913;51.120;6.772;2022-11-20T02:04:04;28.00;;;13.40;;
5774;SDS011;2913;51.120;6.772;2022-11-20T02:06:35;29.50;;;13.65;;
5774;SDS011;2913;51.120;6.772;2022-11-20T02:09:01;29.40;;;12.02;;
5774;SDS011;2913;51.120;6.772;2022-11-20T02:11:30;30.95;;;12.77;;
5774;SDS011;2913;51.120;6.772;2022-11-20T02:13:58;31.65;;;13.38;;
5774;SDS011;2913;51.120;6.772;2022-11-20T02:16:25;28.75;;;13.85;;
5774;SDS011;2913;51.120;6.772;2022-11-20T02:19:06;27.67;;;12.88;;
5774;SDS011;2913;51.120;6.772;2022-11-20T02:24:41;28.27;;;12.68;;
5774;SDS011;2913;51.120;6.772;2022-11-20T02:27:13;27.23;;;12.18;;
5774;SDS011;2913;51.120;6.772;2022-11-20T02:29:53;30.98;;;12.93;;
5774;SDS011;2913;51.120;6.772;2022-11-20T02:34:52;28.17;;;12.80;;
5774;SDS011;2913;51.120;6.772;2022-11-20T02:37:18;29.20;;;12.85;;
5774;SDS011;2913;51.120;6.772;2022-11-20T02:39:45;27.63;;;12.02;;
5774;SDS011;2913;51.120;6.772;2022-11-20T02:42:12;29.27;;;11.57;;
5774;SDS011;2913;51.120;6.772;2022-11-20T02:44:38;28.73;;;13.02;;
5774;SDS011;2913;51.120;6.772;2022-11-20T02:47:04;28.13;;;12.65;;
5774;SDS011;2913;51.120;6.772;2022-11-20T02:49:32;30.00;;;12.07;;
5774;SDS011;2913;51.120;6.772;2022-11-20T02:51:58;28.48;;;12.48;;
5774;SDS011;2913;51.120;6.772;2022-11-20T02:54:23;27.55;;;12.55;;
5774;SDS011;2913;51.120;6.772;2022-11-20T02:56:49;27.67;;;13.10;;
5774;SDS011;2913;51.120;6.772;2022-11-20T02:59:15;28.27;;;11.95;;
5774;SDS011;2913;51.120;6.772;2022-11-20T03:01:41;28.05;;;12.02;;
5774;SDS011;2913;51.120;6.772;2022-11-20T03:04:06;31.08;;;12.60;;
5774;SDS011;2913;51.120;6.772;2022-11-20T03:06:32;29.50;;;12.65;;
5774;SDS011;2913;51.120;6.772;2022-11-20T03:09:00;27.27;;;11.48;;
5774;SDS011;2913;51.120;6.772;2022-11-20T03:11:26;28.42;;;13.00;;
5774;SDS011;2913;51.120;6.772;2022-11-20T03:13:51;30.00;;;12.18;;
5774;SDS011;2913;51.120;6.772;2022-11-20T03:16:22;29.20;;;12.93;;
5774;SDS011;2913;51.120;6.772;2022-11-20T03:18:51;31.75;;;12.77;;
5774;SDS011;2913;51.120;6.772;2022-11-20T03:21:17;27.63;;;12.55;;
5774;SDS011;2913;51.120;6.772;2022-11-20T03:23:46;29.73;;;12.43;;
5774;SDS011;2913;51.120;6.772;2022-11-20T03:26:16;27.83;;;12.40;;
5774;SDS011;2913;51.120;6.772;2022-11-20T03:28:50;27.30;;;12.05;;
5774;SDS011;2913;51.120;6.772;2022-11-20T03:31:18;28.08;;;12.60;;
5774;SDS011;2913;51.120;6.772;2022-11-20T03:33:48;27.83;;;12.32;;
5774;SDS011;2913;51.120;6.772;2022-11-20T03:36:15;27.23;;;12.27;;
5774;SDS011;2913;51.120;6.772;2022-11-20T03:38:42;28.05;;;12.80;;
5774;SDS011;2913;51.120;6.772;2022-11-20T03:41:11;32.22;;;12.68;;
5774;SDS011;2913;51.120;6.772;2022-11-20T03:43:51;33.75;;;13.50;;
5774;SDS011;2913;51.120;6.772;2022-11-20T03:46:22;32.95;;;13.13;;
5774;SDS011;2913;51.120;6.772;2022-11-20T03:48:48;28.95;;;12.45;;
5774;SDS011;2913;51.120;6.772;2022-11-20T03:51:17;28.15;;;12.57;;
5774;SDS011;2913;51.120;6.772;2022-11-20T03:53:44;26.15;;;12.52;;
5774;SDS011;2913;51.120;6.772;2022-11-20T03:56:11;28.08;;;11.95;;
5774;SDS011;2913;51.120;6.772;2022-11-20T03:58:38;27.92;;;12.13;;
5774;SDS011;2913;51.120;6.772;2022-11-20T04:01:09;31.08;;;12.85;;
5774;SDS011;2913;51.120;6.772;2022-11-20T04:03:35;26.45;;;13.30;;
5774;SDS011;2913;51.120;6.772;2022-11-20T04:08:43;27.15;;;12.80;;
5774;SDS011;2913;51.120;6.772;2022-11-20T04:11:10;26.77;;;11.85;;
5774;SDS011;2913;51.120;6.772;2022-11-20T04:13:50;29.95;;;12.95;;
5774;SDS011;2913;51.120;6.772;2022-11-20T04:16:18;33.05;;;12.18;;
5774;SDS011;2913;51.120;6.772;2022-11-20T04:18:44;30.02;;;12.65;;
5774;SDS011;2913;51.120;6.772;2022-11-20T04:21:10;30.25;;;12.02;;
5774;SDS011;2913;51.120;6.772;2022-11-20T04:23:38;26.70;;;11.82;;
5774;SDS011;2913;51.120;6.772;2022-11-20T04:26:05;27.60;;;12.75;;
5774;SDS011;2913;51.120;6.772;2022-11-20T04:28:33;26.27;;;12.80;;
5774;SDS011;2913;51.120;6.772;2022-11-20T04:31:02;31.13;;;12.18;;
5774;SDS011;2913;51.120;6.772;2022-11-20T04:33:29;31.83;;;12.73;;
5774;SDS011;2913;51.120;6.772;2022-11-20T04:35:54;25.08;;;12.68;;
5774;SDS011;2913;51.120;6.772;2022-11-20T04:38:24;26.23;;;12.18;;
5774;SDS011;2913;51.120;6.772;2022-11-20T04:40:55;27.13;;;11.63;;
5774;SDS011;2913;51.120;6.772;2022-11-20T04:43:24;29.98;;;13.00;;
5774;SDS011;2913;51.120;6.772;2022-11-20T04:45:50;31.48;;;12.65;;
5774;SDS011;2913;51.120;6.772;2022-11-20T04:48:17;30.23;;;13.38;;
5774;SDS011;2913;51.120;6.772;2022-11-20T04:50:45;29.40;;;11.73;;
5774;SDS011;2913;51.120;6.772;2022-11-20T04:53:13;26.67;;;12.05;;
5774;SDS011;2913;51.120;6.772;2022-11-20T04:55:39;26.75;;;11.00;;
5774;SDS011;2913;51.120;6.772;2022-11-20T04:58:05;30.23;;;13.20;;
5774;SDS011;2913;51.120;6.772;2022-11-20T05:00:30;28.35;;;12.55;;
5774;SDS011;2913;51.120;6.772;2022-11-20T05:02:56;32.63;;;13.85;;
5774;SDS011;2913;51.120;6.772;2022-11-20T05:05:21;29.63;;;13.00;;
5774;SDS011;2913;51.120;6.772;2022-11-20T05:07:49;27.75;;;13.40;;
5774;SDS011;2913;51.120;6.772;2022-11-20T05:10:22;29.38;;;13.77;;
5774;SDS011;2913;51.120;6.772;2022-11-20T05:12:48;35.58;;;13.48;;
5774;SDS011;2913;51.120;6.772;2022-11-20T05:15:14;34.03;;;14.75;;
5774;SDS011;2913;51.120;6.772;2022-11-20T05:17:40;30.70;;;14.10;;
5774;SDS011;2913;51.120;6.772;2022-11-20T05:20:05;27.42;;;13.15;;
5774;SDS011;2913;51.120;6.772;2022-11-20T05:22:31;30.40;;;13.30;;
5774;SDS011;2913;51.120;6.772;2022-11-20T05:24:59;30.45;;;13.80;;
5774;SDS011;2913;51.120;6.772;2022-11-20T05:27:25;28.80;;;14.65;;
5774;SDS011;2913;51.120;6.772;2022-11-20T05:29:53;31.50;;;14.63;;
5774;SDS011;2913;51.120;6.772;2022-11-20T05:32:18;29.48;;;13.63;;
5774;SDS011;2913;51.120;6.772;2022-11-20T05:34:46;29.17;;;13.68;;
5774;SDS011;2913;51.120;6.772;2022-11-20T05:37:14;25.85;;;13.13;;
5774;SDS011;2913;51.120;6.772;2022-11-20T05:39:42;30.58;;;13.05;;
5774;SDS011;2913;51.120;6.772;2022-11-20T05:42:08;28.75;;;12.80;;
5774;SDS011;2913;51.120;6.772;2022-11-20T05:44:52;28.95;;;13.65;;
5774;SDS011;2913;51.120;6.772;2022-11-20T05:47:20;30.67;;;13.07;;
5774;SDS011;2913;51.120;6.772;2022-11-20T05:49:45;38.08;;;15.00;;
5774;SDS011;2913;51.120;6.772;2022-11-20T05:52:11;29.90;;;13.98;;
5774;SDS011;2913;51.120;6.772;2022-11-20T05:54:39;29.83;;;14.02;;
5774;SDS011;2913;51.120;6.772;2022-11-20T05:57:04;32.45;;;13.70;;
5774;SDS011;2913;51.120;6.772;2022-11-20T05:59:32;31.35;;;14.05;;
5774;SDS011;2913;51.120;6.772;2022-11-20T06:02:00;28.73;;;13.93;;
5774;SDS011;2913;51.120;6.772;2022-11-20T06:04:26;30.65;;;13.10;;
5774;SDS011;2913;51.120;6.772;2022-11-20T06:06:52;33.38;;;13.40;;
5774;SDS011;2913;51.120;6.772;2022-11-20T06:09:20;38.17;;;17.85;;
5774;SDS011;2913;51.120;6.772;2022-11-20T06:11:45;39.78;;;17.92;;
5774;SDS011;2913;51.120;6.772;2022-11-20T06:14:11;35.42;;;16.20;;
5774;SDS011;2913;51.120;6.772;2022-11-20T06:16:36;30.25;;;14.43;;
5774;SDS011;2913;51.120;6.772;2022-11-20T06:19:02;31.88;;;14.60;;
5774;SDS011;2913;51.120;6.772;2022-11-20T06:21:30;37.55;;;15.20;;
5774;SDS011;2913;51.120;6.772;2022-11-20T06:24:02;35.55;;;14.95;;
5774;SDS011;2913;51.120;6.772;2022-11-20T06:26:29;31.60;;;15.15;;
5774;SDS011;2913;51.120;6.772;2022-11-20T06:28:58;30.15;;;14.32;;
5774;SDS011;2913;51.120;6.772;2022-11-20T06:31:25;30.33;;;14.40;;
5774;SDS011;2913;51.120;6.772;2022-11-20T06:33:53;32.60;;;14.32;;
5774;SDS011;2913;51.120;6.772;2022-11-20T06:36:20;31.58;;;14.13;;
5774;SDS011;2913;51.120;6.772;2022-11-20T06:38:50;35.83;;;15.07;;
5774;SDS011;2913;51.120;6.772;2022-11-20T06:41:23;36.15;;;15.65;;
5774;SDS011;2913;51.120;6.772;2022-11-20T06:43:49;38.38;;;17.20;;
5774;SDS011;2913;51.120;6.772;2022-11-20T06:46:15;35.83;;;16.48;;
5774;SDS011;2913;51.120;6.772;2022-11-20T06:48:44;41.63;;;16.83;;
5774;SDS011;2913;51.120;6.772;2022-11-20T06:51:11;35.05;;;15.85;;
5774;SDS011;2913;51.120;6.772;2022-11-20T06:53:37;44.45;;;15.45;;
5774;SDS011;2913;51.120;6.772;2022-11-20T06:56:03;33.40;;;13.68;;
5774;SDS011;2913;51.120;6.772;2022-11-20T06:58:30;34.08;;;13.13;;
5774;SDS011;2913;51.120;6.772;2022-11-20T07:01:00;32.22;;;13.98;;
5774;SDS011;2913;51.120;6.772;2022-11-20T07:03:27;31.05;;;13.00;;
5774;SDS011;2913;51.120;6.772;2022-11-20T07:05:57;30.40;;;13.50;;
5774;SDS011;2913;51.120;6.772;2022-11-20T07:08:27;26.33;;;13.18;;
5774;SDS011;2913;51.120;6.772;2022-11-20T07:10:56;32.45;;;14.45;;
5774;SDS011;2913;51.120;6.772;2022-11-20T07:13:29;27.30;;;13.57;;
5774;SDS011;2913;51.120;6.772;2022-11-20T07:15:59;30.42;;;12.50;;
5774;SDS011;2913;51.120;6.772;2022-11-20T07:18:28;30.65;;;13.43;;
5774;SDS011;2913;51.120;6.772;2022-11-20T07:20:54;37.03;;;14.10;;
5774;SDS011;2913;51.120;6.772;2022-11-20T07:23:26;40.50;;;14.95;;
5774;SDS011;2913;51.120;6.772;2022-11-20T07:25:52;35.35;;;15.88;;
5774;SDS011;2913;51.120;6.772;2022-11-20T07:28:18;35.17;;;14.68;;
5774;SDS011;2913;51.120;6.772;2022-11-20T07:30:49;30.00;;;13.88;;
5774;SDS011;2913;51.120;6.772;2022-11-20T07:33:16;32.40;;;14.05;;
5774;SDS011;2913;51.120;6.772;2022-11-20T07:35:41;34.70;;;14.18;;
5774;SDS011;2913;51.120;6.772;2022-11-20T07:38:07;30.92;;;14.50;;
5774;SDS011;2913;51.120;6.772;2022-11-20T07:40:33;29.27;;;13.73;;
5774;SDS011;2913;51.120;6.772;2022-11-20T07:42:58;33.60;;;14.43;;
5774;SDS011;2913;51.120;6.772;2022-11-20T07:45:26;31.70;;;15.57;;
5774;SDS011;2913;51.120;6.772;2022-11-20T07:47:52;32.15;;;16.02;;
5774;SDS011;2913;51.120;6.772;2022-11-20T07:50:18;34.50;;;16.35;;
5774;SDS011;2913;51.120;6.772;2022-11-20T07:52:44;34.90;;;16.70;;
5774;SDS011;2913;51.120;6.772;2022-11-20T07:55:10;38.47;;;16.85;;
5774;SDS011;2913;51.120;6.772;2022-11-20T07:57:36;31.75;;;15.45;;
5774;SDS011;2913;51.120;6.772;2022-11-20T08:00:04;32.33;;;15.07;;
5774;SDS011;2913;51.120;6.772;2022-11-20T08:02:36;34.65;;;14.73;;
5774;SDS011;2913;51.120;6.772;2022-11-20T08:05:10;34.15;;;16.92;;
5774;SDS011;2913;51.120;6.772;2022-11-20T08:07:39;37.58;;;17.70;;
5774;SDS011;2913;51.120;6.772;2022-11-20T08:10:08;30.95;;;14.10;;
5774;SDS011;2913;51.120;6.772;2022-11-20T08:12:47;33.90;;;16.30;;
5774;SDS011;2913;51.120;6.772;2022-11-20T08:15:36;37.92;;;17.75;;
5774;SDS011;2913;51.120;6.772;2022-11-20T08:18:09;35.28;;;16.58;;
5774;SDS011;2913;51.120;6.772;2022-11-20T08:20:36;34.22;;;15.13;;
5774;SDS011;2913;51.120;6.772;2022-11-20T08:23:03;30.50;;;14.98;;
5774;SDS011;2913;51.120;6.772;2022-11-20T08:25:34;31.88;;;16.02;;
5774;SDS011;2913;51.120;6.772;2022-11-20T08:28:04;37.03;;;17.70;;
5774;SDS011;2913;51.120;6.772;2022-11-20T08:30:34;37.30;;;17.40;;
5774;SDS011;2913;51.120;6.772;2022-11-20T08:33:04;36.22;;;16.75;;
5774;SDS011;2913;51.120;6.772;2022-11-20T08:35:33;39.40;;;16.97;;
5774;SDS011;2913;51.120;6.772;2022-11-20T08:38:03;36.63;;;17.05;;
5774;SDS011;2913;51.120;6.772;2022-11-20T08:40:29;35.65;;;16.33;;
5774;SDS011;2913;51.120;6.772;2022-11-20T08:42:55;41.13;;;17.88;;
5774;SDS011;2913;51.120;6.772;2022-11-20T08:45:23;31.13;;;16.33;;
5774;SDS011;2913;51.120;6.772;2022-11-20T08:47:49;33.20;;;15.80;;
5774;SDS011;2913;51.120;6.772;2022-11-20T08:50:15;31.85;;;14.95;;
5774;SDS011;2913;51.120;6.772;2022-11-20T08:52:42;29.85;;;14.80;;
5774;SDS011;2913;51.120;6.772;2022-11-20T08:55:08;31.75;;;14.40;;
5774;SDS011;2913;51.120;6.772;2022-11-20T08:57:34;31.10;;;14.18;;
5774;SDS011;2913;51.120;6.772;2022-11-20T09:00:04;35.28;;;13.95;;
5774;SDS011;2913;51.120;6.772;2022-11-20T09:02:31;32.25;;;14.55;;
5774;SDS011;2913;51.120;6.772;2022-11-20T09:04:57;33.90;;;14.27;;
5774;SDS011;2913;51.120;6.772;2022-11-20T09:07:23;31.33;;;14.55;;
5774;SDS011;2913;51.120;6.772;2022-11-20T09:09:51;33.67;;;14.45;;
5774;SDS011;2913;51.120;6.772;2022-11-20T09:12:16;30.60;;;14.50;;
5774;SDS011;2913;51.120;6.772;2022-11-20T09:14:47;29.60;;;12.98;;
5774;SDS011;2913;51.120;6.772;2022-11-20T09:17:14;33.78;;;13.98;;
5774;SDS011;2913;51.120;6.772;2022-11-20T09:19:40;34.83;;;13.57;;
5774;SDS011;2913;51.120;6.772;2022-11-20T09:22:06;30.77;;;12.82;;
5774;SDS011;2913;51.120;6.772;2022-11-20T09:24:34;40.03;;;14.45;;
5774;SDS011;2913;51.120;6.772;2022-11-20T09:27:02;31.02;;;11.95;;
5774;SDS011;2913;51.120;6.772;2022-11-20T09:29:31;27.75;;;11.77;;
5774;SDS011;2913;51.120;6.772;2022-11-20T09:31:59;24.10;;;10.88;;
5774;SDS011;2913;51.120;6.772;2022-11-20T09:34:25;26.80;;;11.60;;
5774;SDS011;2913;51.120;6.772;2022-11-20T09:36:50;28.63;;;12.45;;
5774;SDS011;2913;51.120;6.772;2022-11-20T09:39:16;29.30;;;12.05;;
5774;SDS011;2913;51.120;6.772;2022-11-20T09:47:01;27.80;;;11.65;;
5774;SDS011;2913;51.120;6.772;2022-11-20T09:52:26;25.23;;;11.70;;
5774;SDS011;2913;51.120;6.772;2022-11-20T09:55:18;30.48;;;12.35;;
5774;SDS011;2913;51.120;6.772;2022-11-20T09:57:44;37.70;;;16.23;;
5774;SDS011;2913;51.120;6.772;2022-11-20T10:00:12;31.27;;;13.85;;
5774;SDS011;2913;51.120;6.772;2022-11-20T10:02:46;30.88;;;13.25;;
5774;SDS011;2913;51.120;6.772;2022-11-20T10:05:20;32.30;;;12.48;;
5774;SDS011;2913;51.120;6.772;2022-11-20T10:25:56;30.75;;;11.57;;
5774;SDS011;2913;51.120;6.772;2022-11-20T10:28:34;36.83;;;14.80;;
5774;SDS011;2913;51.120;6.772;2022-11-20T10:33:57;33.15;;;15.30;;
5774;SDS011;2913;51.120;6.772;2022-11-20T10:36:33;29.90;;;12.57;;
5774;SDS011;2913;51.120;6.772;2022-11-20T10:39:21;36.42;;;13.63;;
5774;SDS011;2913;51.120;6.772;2022-11-20T10:42:10;28.88;;;12.38;;
5774;SDS011;2913;51.120;6.772;2022-11-20T10:44:38;30.73;;;11.38;;
5774;SDS011;2913;51.120;6.772;2022-11-20T10:47:27;27.45;;;11.93;;
5774;SDS011;2913;51.120;6.772;2022-11-20T10:50:00;37.03;;;14.40;;
5774;SDS011;2913;51.120;6.772;2022-11-20T11:00:47;27.88;;;11.50;;
5774;SDS011;2913;51.120;6.772;2022-11-20T11:03:26;35.30;;;13.57;;
5774;SDS011;2913;51.120;6.772;2022-11-20T11:08:38;33.00;;;13.93;;
5774;SDS011;2913;51.120;6.772;2022-11-20T11:11:15;29.30;;;11.20;;
5774;SDS011;2913;51.120;6.772;2022-11-20T11:13:47;36.33;;;13.88;;
5774;SDS011;2913;51.120;6.772;2022-11-20T11:16:25;31.23;;;13.18;;
5774;SDS011;2913;51.120;6.772;2022-11-20T11:19:02;40.45;;;13.27;;
5774;SDS011;2913;51.120;6.772;2022-11-20T11:21:35;32.92;;;15.00;;
5774;SDS011;2913;51.120;6.772;2022-11-20T11:26:56;31.60;;;12.68;;
5774;SDS011;2913;51.120;6.772;2022-11-20T11:29:29;40.78;;;14.60;;
5774;SDS011;2913;51.120;6.772;2022-11-20T11:34:31;35.15;;;15.23;;
5774;SDS011;2913;51.120;6.772;2022-11-20T11:36:57;43.72;;;16.40;;
5774;SDS011;2913;51.120;6.772;2022-11-20T11:39:24;36.17;;;15.07;;
5774;SDS011;2913;51.120;6.772;2022-11-20T11:41:53;37.95;;;14.40;;
5774;SDS011;2913;51.120;6.772;2022-11-20T11:44:23;41.83;;;15.77;;
5774;SDS011;2913;51.120;6.772;2022-11-20T11:52:48;29.52;;;13.00;;
5774;SDS011;2913;51.120;6.772;2022-11-20T12:00:45;33.22;;;14.07;;
5774;SDS011;2913;51.120;6.772;2022-11-20T12:03:27;38.13;;;16.85;;
5774;SDS011;2913;51.120;6.772;2022-11-20T12:06:01;35.65;;;13.07;;
5774;SDS011;2913;51.120;6.772;2022-11-20T12:08:44;31.27;;;13.25;;
5774;SDS011;2913;51.120;6.772;2022-11-20T12:16:29;38.88;;;13.90;;
5774;SDS011;2913;51.120;6.772;2022-11-20T12:19:02;34.35;;;14.05;;
5774;SDS011;2913;51.120;6.772;2022-11-20T12:21:54;32.65;;;13.43;;
5774;SDS011;2913;51.120;6.772;2022-11-20T12:32:37;36.17;;;14.32;;
5774;SDS011;2913;51.120;6.772;2022-11-20T12:43:43;37.42;;;15.02;;
5774;SDS011;2913;51.120;6.772;2022-11-20T13:00:19;35.63;;;14.85;;
5774;SDS011;2913;51.120;6.772;2022-11-20T13:03:06;35.10;;;14.10;;
5774;SDS011;2913;51.120;6.772;2022-11-20T13:08:27;36.50;;;14.77;;
5774;SDS011;2913;51.120;6.772;2022-11-20T13:19:29;40.88;;;16.50;;
5774;SDS011;2913;51.120;6.772;2022-11-20T13:21:55;42.45;;;16.80;;
5774;SDS011;2913;51.120;6.772;2022-11-20T13:24:25;39.50;;;16.00;;
5774;SDS011;2913;51.120;6.772;2022-11-20T13:29:36;47.72;;;18.38;;
5774;SDS011;2913;51.120;6.772;2022-11-20T13:37:58;49.63;;;16.35;;
5774;SDS011;2913;51.120;6.772;2022-11-20T13:40:27;54.15;;;18.15;;
5774;SDS011;2913;51.120;6.772;2022-11-20T13:45:31;40.85;;;15.43;;
5774;SDS011;2913;51.120;6.772;2022-11-20T13:47:59;49.15;;;17.77;;
5774;SDS011;2913;51.120;6.772;2022-11-20T13:53:04;43.30;;;15.38;;
5774;SDS011;2913;51.120;6.772;2022-11-20T13:59:10;45.08;;;18.70;;
5774;SDS011;2913;51.120;6.772;2022-11-20T14:01:55;38.53;;;15.55;;
5774;SDS011;2913;51.120;6.772;2022-11-20T14:04:27;42.55;;;16.42;;
5774;SDS011;2913;51.120;6.772;2022-11-20T14:06:59;40.40;;;14.52;;
5774;SDS011;2913;51.120;6.772;2022-11-20T14:09:31;40.10;;;15.75;;
5774;SDS011;2913;51.120;6.772;2022-11-20T14:12:03;34.83;;;15.18;;
5774;SDS011;2913;51.120;6.772;2022-11-20T14:14:47;30.80;;;12.97;;
5774;SDS011;2913;51.120;6.772;2022-11-20T14:17:19;36.70;;;15.73;;
5774;SDS011;2913;51.120;6.772;2022-11-20T14:19:47;36.33;;;15.68;;
5774;SDS011;2913;51.120;6.772;2022-11-20T14:22:22;38.80;;;16.95;;
5774;SDS011;2913;51.120;6.772;2022-11-20T14:25:03;34.58;;;15.25;;
5774;SDS011;2913;51.120;6.772;2022-11-20T14:27:47;42.72;;;18.13;;
5774;SDS011;2913;51.120;6.772;2022-11-20T14:30:23;38.72;;;17.00;;
5774;SDS011;2913;51.120;6.772;2022-11-20T14:32:51;36.70;;;14.18;;
5774;SDS011;2913;51.120;6.772;2022-11-20T14:37:50;37.83;;;14.73;;
5774;SDS011;2913;51.120;6.772;2022-11-20T14:42:55;41.60;;;16.55;;
5774;SDS011;2913;51.120;6.772;2022-11-20T14:45:22;34.28;;;13.88;;
5774;SDS011;2913;51.120;6.772;2022-11-20T14:47:52;39.95;;;15.88;;
5774;SDS011;2913;51.120;6.772;2022-11-20T14:50:26;37.40;;;16.30;;
5774;SDS011;2913;51.120;6.772;2022-11-20T14:52:54;39.10;;;14.20;;
5774;SDS011;2913;51.120;6.772;2022-11-20T14:55:29;35.00;;;14.60;;
5774;SDS011;2913;51.120;6.772;2022-11-20T14:57:56;33.50;;;14.95;;
5774;SDS011;2913;51.120;6.772;2022-11-20T15:00:26;34.38;;;13.85;;
5774;SDS011;2913;51.120;6.772;2022-11-20T15:02:52;30.98;;;13.10;;
5774;SDS011;2913;51.120;6.772;2022-11-20T15:05:19;30.48;;;13.68;;
5774;SDS011;2913;51.120;6.772;2022-11-20T15:07:50;39.63;;;16.15;;
5774;SDS011;2913;51.120;6.772;2022-11-20T15:10:29;31.52;;;12.70;;
5774;SDS011;2913;51.120;6.772;2022-11-20T15:12:56;35.42;;;16.75;;
5774;SDS011;2913;51.120;6.772;2022-11-20T15:15:31;40.42;;;17.00;;
5774;SDS011;2913;51.120;6.772;2022-11-20T15:18:30;42.35;;;17.17;;
5774;SDS011;2913;51.120;6.772;2022-11-20T15:21:03;42.65;;;18.90;;
5774;SDS011;2913;51.120;6.772;2022-11-20T15:23:34;51.22;;;20.70;;
5774;SDS011;2913;51.120;6.772;2022-11-20T15:26:00;29.02;;;11.57;;
5774;SDS011;2913;51.120;6.772;2022-11-20T15:28:34;24.23;;;9.13;;
5774;SDS011;2913;51.120;6.772;2022-11-20T15:31:02;53.22;;;21.55;;
5774;SDS011;2913;51.120;6.772;2022-11-20T15:33:29;58.75;;;24.70;;
5774;SDS011;2913;51.120;6.772;2022-11-20T15:35:55;36.17;;;15.43;;
5774;SDS011;2913;51.120;6.772;2022-11-20T15:38:21;37.35;;;14.98;;
5774;SDS011;2913;51.120;6.772;2022-11-20T15:40:47;33.40;;;13.85;;
5774;SDS011;2913;51.120;6.772;2022-11-20T15:43:13;35.05;;;15.20;;
5774;SDS011;2913;51.120;6.772;2022-11-20T15:48:14;28.95;;;12.02;;
5774;SDS011;2913;51.120;6.772;2022-11-20T15:53:28;36.42;;;14.63;;
5774;SDS011;2913;51.120;6.772;2022-11-20T15:55:54;36.22;;;15.88;;
5774;SDS011;2913;51.120;6.772;2022-11-20T15:58:20;36.40;;;13.27;;
5774;SDS011;2913;51.120;6.772;2022-11-20T16:00:49;29.20;;;11.23;;
5774;SDS011;2913;51.120;6.772;2022-11-20T16:03:15;30.88;;;11.10;;
5774;SDS011;2913;51.120;6.772;2022-11-20T16:05:42;35.47;;;15.02;;
5774;SDS011;2913;51.120;6.772;2022-11-20T16:08:08;36.63;;;14.27;;
5774;SDS011;2913;51.120;6.772;2022-11-20T16:10:34;36.97;;;14.60;;
5774;SDS011;2913;51.120;6.772;2022-11-20T16:13:00;31.20;;;12.40;;
5774;SDS011;2913;51.120;6.772;2022-11-20T16:15:51;28.58;;;11.05;;
5774;SDS011;2913;51.120;6.772;2022-11-20T16:18:20;32.53;;;13.15;;
5774;SDS011;2913;51.120;6.772;2022-11-20T16:20:50;29.00;;;11.98;;
5774;SDS011;2913;51.120;6.772;2022-11-20T16:23:17;37.85;;;14.57;;
5774;SDS011;2913;51.120;6.772;2022-11-20T16:25:43;25.67;;;11.10;;
5774;SDS011;2913;51.120;6.772;2022-11-20T16:28:12;32.92;;;12.32;;
5774;SDS011;2913;51.120;6.772;2022-11-20T16:30:38;37.58;;;15.00;;
5774;SDS011;2913;51.120;6.772;2022-11-20T16:33:04;33.72;;;12.63;;
5774;SDS011;2913;51.120;6.772;2022-11-20T16:35:38;31.55;;;11.65;;
5774;SDS011;2913;51.120;6.772;2022-11-20T16:38:09;25.52;;;10.45;;
5774;SDS011;2913;51.120;6.772;2022-11-20T16:40:35;21.90;;;8.82;;
5774;SDS011;2913;51.120;6.772;2022-11-20T16:43:10;25.15;;;9.15;;
5774;SDS011;2913;51.120;6.772;2022-11-20T16:45:42;32.38;;;10.02;;
5774;SDS011;2913;51.120;6.772;2022-11-20T16:48:12;31.65;;;10.02;;
5774;SDS011;2913;51.120;6.772;2022-11-20T16:50:48;26.70;;;10.15;;
5774;SDS011;2913;51.120;6.772;2022-11-20T16:53:16;28.95;;;13.57;;
5774;SDS011;2913;51.120;6.772;2022-11-20T16:55:42;33.83;;;12.45;;
5774;SDS011;2913;51.120;6.772;2022-11-20T16:58:08;34.42;;;15.25;;
5774;SDS011;2913;51.120;6.772;2022-11-20T17:00:37;30.17;;;11.90;;
5774;SDS011;2913;51.120;6.772;2022-11-20T17:03:04;27.33;;;9.20;;
5774;SDS011;2913;51.120;6.772;2022-11-20T17:05:32;20.23;;;8.68;;
5774;SDS011;2913;51.120;6.772;2022-11-20T17:07:59;20.88;;;7.93;;
5774;SDS011;2913;51.120;6.772;2022-11-20T17:10:24;19.73;;;7.32;;
5774;SDS011;2913;51.120;6.772;2022-11-20T17:12:50;19.80;;;8.65;;
5774;SDS011;2913;51.120;6.772;2022-11-20T17:15:16;24.05;;;9.32;;
5774;SDS011;2913;51.120;6.772;2022-11-20T17:17:41;19.90;;;8.02;;
5774;SDS011;2913;51.120;6.772;2022-11-20T17:20:10;19.65;;;8.38;;
5774;SDS011;2913;51.120;6.772;2022-11-20T17:22:38;19.02;;;7.30;;
5774;SDS011;2913;51.120;6.772;2022-11-20T17:25:04;14.88;;;6.50;;